Main page
METAR-TAF:

METAR-TAF

Airports :

Buriram Airport

Buriram, Thailand

latitude: 15-13-46N, longitude: 103-15-04E, elevation: 180 m

Current weather observation

The report was made 6 hours and 35 minutes ago, at 13:00 UTC
Wind 4 kt from the East
Temperature 29°C
Humidity 43%
Pressure 1013 hPa
Visibility: 5000 m
haze

METAR: VTUO 221300Z 10004KT 5000 HZ NSC 29/15 Q1013 NOSIG

Time: 02:35 (19:35 UTC)

Forecast

The report was made 2 hours and 35 minutes ago, at 17:00 UTC
Forecast valid from 22 at 18 UTC to 23 at 18 UTC
Wind 4 kt from the South/Southeast
Visibility: 4000 m
mist
Becoming
from 23 at 02 UTC to 23 at 04 UTC
Visibility: 8000 m
Becoming
from 23 at 12 UTC to 23 at 14 UTC
Visibility: 5000 m
mist

TAF: VTUO 221700Z 2218/2318 15004KT 4000 BR NSC BECMG 2302/2304 8000 NSW BECMG 2312/2314 5000 BR

Weather observations and forecasts of more than 4000 airports (METAR and TAF reports).

The available stations are represented by yellow and red dots on the map.

Hover mouse over dot to see the name of the station.

Then click to see weather observations and forecasts.

To change the map : click on the green buttons with a black cross to zoom in, on the green button with a dash to zoom out, or on the green arrows for adjacent maps.


METAR-TAF: